sensor_id;sensor_type;location;lat;lon;timestamp;pressure;altitude;pressure_sealevel;temperature;humidity
72262;BME280;60173;52.112;8.648;2022-12-15T00:00:46;99560.44;;;-8.83;90.32
72262;BME280;60173;52.112;8.648;2022-12-15T00:03:12;99565.31;;;-8.80;90.64
72262;BME280;60173;52.112;8.648;2022-12-15T00:05:39;99567.94;;;-8.80;90.61
72262;BME280;60173;52.112;8.648;2022-12-15T00:08:08;99568.00;;;-8.73;90.59
72262;BME280;60173;52.112;8.648;2022-12-15T00:10:35;99570.25;;;-8.63;90.35
72262;BME280;60173;52.112;8.648;2022-12-15T00:13:02;99577.16;;;-8.62;90.15
72262;BME280;60173;52.112;8.648;2022-12-15T00:15:28;99580.00;;;-8.57;90.00
72262;BME280;60173;52.112;8.648;2022-12-15T00:17:55;99575.63;;;-8.44;89.62
72262;BME280;60173;52.112;8.648;2022-12-15T00:20:22;99576.59;;;-8.51;89.53
72262;BME280;60173;52.112;8.648;2022-12-15T00:22:48;99581.47;;;-8.48;89.32
72262;BME280;60173;52.112;8.648;2022-12-15T00:25:14;99581.03;;;-8.58;89.21
72262;BME280;60173;52.112;8.648;2022-12-15T00:27:41;99587.75;;;-8.49;89.04
72262;BME280;60173;52.112;8.648;2022-12-15T00:30:09;99577.22;;;-8.49;88.41
72262;BME280;60173;52.112;8.648;2022-12-15T00:32:36;99583.28;;;-8.49;87.91
72262;BME280;60173;52.112;8.648;2022-12-15T00:35:02;99581.63;;;-8.56;87.82
72262;BME280;60173;52.112;8.648;2022-12-15T00:37:29;99591.72;;;-8.67;87.76
72262;BME280;60173;52.112;8.648;2022-12-15T00:39:55;99581.75;;;-8.71;87.92
72262;BME280;60173;52.112;8.648;2022-12-15T00:42:21;99578.31;;;-8.72;88.30
72262;BME280;60173;52.112;8.648;2022-12-15T00:44:48;99571.06;;;-8.70;88.69
72262;BME280;60173;52.112;8.648;2022-12-15T00:47:14;99568.47;;;-8.56;89.15
72262;BME280;60173;52.112;8.648;2022-12-15T00:49:40;99573.97;;;-8.51;89.38
72262;BME280;60173;52.112;8.648;2022-12-15T00:52:07;99574.81;;;-8.44;90.07
72262;BME280;60173;52.112;8.648;2022-12-15T00:54:34;99576.44;;;-8.36;90.30
72262;BME280;60173;52.112;8.648;2022-12-15T00:57:00;99582.56;;;-8.23;90.63
72262;BME280;60173;52.112;8.648;2022-12-15T00:59:27;99584.63;;;-8.18;90.20
72262;BME280;60173;52.112;8.648;2022-12-15T01:01:53;99582.53;;;-8.29;89.99
72262;BME280;60173;52.112;8.648;2022-12-15T01:04:20;99586.78;;;-8.35;89.97
72262;BME280;60173;52.112;8.648;2022-12-15T01:06:46;99586.41;;;-8.25;89.94
72262;BME280;60173;52.112;8.648;2022-12-15T01:09:13;99588.22;;;-8.26;90.40
72262;BME280;60173;52.112;8.648;2022-12-15T01:11:40;99597.25;;;-8.00;90.03
72262;BME280;60173;52.112;8.648;2022-12-15T01:14:06;99598.91;;;-7.86;89.10
72262;BME280;60173;52.112;8.648;2022-12-15T01:16:33;99591.97;;;-7.93;89.07
72262;BME280;60173;52.112;8.648;2022-12-15T01:18:59;99589.09;;;-8.05;88.88
72262;BME280;60173;52.112;8.648;2022-12-15T01:21:26;99597.75;;;-8.25;88.52
72262;BME280;60173;52.112;8.648;2022-12-15T01:23:52;99605.84;;;-8.33;88.66
72262;BME280;60173;52.112;8.648;2022-12-15T01:26:19;99598.34;;;-8.29;89.18
72262;BME280;60173;52.112;8.648;2022-12-15T01:28:45;99608.47;;;-8.33;89.31
72262;BME280;60173;52.112;8.648;2022-12-15T01:31:12;99614.56;;;-8.32;89.20
72262;BME280;60173;52.112;8.648;2022-12-15T01:33:39;99611.91;;;-8.39;89.33
72262;BME280;60173;52.112;8.648;2022-12-15T01:36:05;99615.78;;;-8.28;89.27
72262;BME280;60173;52.112;8.648;2022-12-15T01:38:32;99621.34;;;-8.03;88.44
72262;BME280;60173;52.112;8.648;2022-12-15T01:41:04;99630.66;;;-8.07;88.42
72262;BME280;60173;52.112;8.648;2022-12-15T01:43:33;99628.75;;;-8.27;88.20
72262;BME280;60173;52.112;8.648;2022-12-15T01:51:32;99627.50;;;-8.44;88.64
72262;BME280;60173;52.112;8.648;2022-12-15T01:54:04;99619.38;;;-8.43;89.20
72262;BME280;60173;52.112;8.648;2022-12-15T01:57:04;99625.47;;;-8.42;89.50
72262;BME280;60173;52.112;8.648;2022-12-15T01:59:38;99626.91;;;-8.33;89.70
72262;BME280;60173;52.112;8.648;2022-12-15T02:02:06;99623.28;;;-8.25;89.63
72262;BME280;60173;52.112;8.648;2022-12-15T02:04:33;99637.66;;;-8.28;89.79
72262;BME280;60173;52.112;8.648;2022-12-15T02:06:59;99640.09;;;-8.26;90.38
72262;BME280;60173;52.112;8.648;2022-12-15T02:09:26;99631.03;;;-8.10;90.51
72262;BME280;60173;52.112;8.648;2022-12-15T02:18:10;99645.09;;;-7.97;91.06
72262;BME280;60173;52.112;8.648;2022-12-15T02:31:30;99659.16;;;-7.69;91.20
72262;BME280;60173;52.112;8.648;2022-12-15T02:34:10;99661.66;;;-7.55;91.06
72262;BME280;60173;52.112;8.648;2022-12-15T02:36:42;99660.22;;;-7.57;90.52
72262;BME280;60173;52.112;8.648;2022-12-15T02:39:13;99677.03;;;-7.58;90.55
72262;BME280;60173;52.112;8.648;2022-12-15T02:41:44;99667.34;;;-7.51;90.58
72262;BME280;60173;52.112;8.648;2022-12-15T02:44:34;99669.78;;;-7.43;90.50
72262;BME280;60173;52.112;8.648;2022-12-15T02:47:26;99663.50;;;-7.42;90.66
72262;BME280;60173;52.112;8.648;2022-12-15T02:57:51;99660.06;;;-7.36;90.76
72262;BME280;60173;52.112;8.648;2022-12-15T03:00:18;99665.31;;;-7.36;90.57
72262;BME280;60173;52.112;8.648;2022-12-15T03:02:49;99660.22;;;-7.44;90.52
72262;BME280;60173;52.112;8.648;2022-12-15T03:05:17;99667.75;;;-7.54;90.21
72262;BME280;60173;52.112;8.648;2022-12-15T03:07:44;99675.59;;;-7.61;90.19
72262;BME280;60173;52.112;8.648;2022-12-15T03:10:15;99675.19;;;-7.64;90.04
72262;BME280;60173;52.112;8.648;2022-12-15T03:12:42;99678.44;;;-7.69;90.34
72262;BME280;60173;52.112;8.648;2022-12-15T03:15:08;99679.66;;;-7.65;90.38
72262;BME280;60173;52.112;8.648;2022-12-15T03:17:35;99689.00;;;-7.69;90.65
72262;BME280;60173;52.112;8.648;2022-12-15T03:20:01;99683.72;;;-7.69;90.63
72262;BME280;60173;52.112;8.648;2022-12-15T03:22:28;99671.13;;;-7.67;90.76
72262;BME280;60173;52.112;8.648;2022-12-15T03:24:54;99685.34;;;-7.61;90.86
72262;BME280;60173;52.112;8.648;2022-12-15T03:27:20;99679.09;;;-7.60;90.84
72262;BME280;60173;52.112;8.648;2022-12-15T03:29:47;99685.75;;;-7.64;90.65
72262;BME280;60173;52.112;8.648;2022-12-15T03:32:13;99687.97;;;-7.68;90.59
72262;BME280;60173;52.112;8.648;2022-12-15T03:34:40;99682.94;;;-7.56;90.54
72262;BME280;60173;52.112;8.648;2022-12-15T03:37:06;99686.38;;;-7.62;90.33
72262;BME280;60173;52.112;8.648;2022-12-15T03:39:32;99690.22;;;-7.65;90.29
72262;BME280;60173;52.112;8.648;2022-12-15T03:41:59;99703.25;;;-7.50;90.33
72262;BME280;60173;52.112;8.648;2022-12-15T03:44:25;99704.03;;;-7.50;90.08
72262;BME280;60173;52.112;8.648;2022-12-15T03:46:51;99706.91;;;-7.51;90.13
72262;BME280;60173;52.112;8.648;2022-12-15T03:49:18;99699.16;;;-7.59;90.07
72262;BME280;60173;52.112;8.648;2022-12-15T03:51:44;99712.56;;;-7.54;89.86
72262;BME280;60173;52.112;8.648;2022-12-15T03:54:11;99711.75;;;-7.55;89.86
72262;BME280;60173;52.112;8.648;2022-12-15T03:56:38;99712.97;;;-7.51;89.86
72262;BME280;60173;52.112;8.648;2022-12-15T03:59:05;99718.06;;;-7.49;90.05
72262;BME280;60173;52.112;8.648;2022-12-15T04:01:33;99716.88;;;-7.40;89.84
72262;BME280;60173;52.112;8.648;2022-12-15T04:04:01;99714.00;;;-7.45;89.98
72262;BME280;60173;52.112;8.648;2022-12-15T04:06:28;99720.09;;;-7.51;89.65
72262;BME280;60173;52.112;8.648;2022-12-15T04:08:55;99719.47;;;-7.46;90.04
72262;BME280;60173;52.112;8.648;2022-12-15T04:11:21;99713.78;;;-7.50;89.94
72262;BME280;60173;52.112;8.648;2022-12-15T04:13:47;99715.84;;;-7.32;90.27
72262;BME280;60173;52.112;8.648;2022-12-15T04:16:14;99712.63;;;-7.34;90.30
72262;BME280;60173;52.112;8.648;2022-12-15T04:18:45;99706.50;;;-7.35;90.36
72262;BME280;60173;52.112;8.648;2022-12-15T04:21:12;99711.41;;;-7.32;90.42
72262;BME280;60173;52.112;8.648;2022-12-15T04:23:38;99719.53;;;-7.33;90.37
72262;BME280;60173;52.112;8.648;2022-12-15T04:26:04;99721.97;;;-7.32;90.27
72262;BME280;60173;52.112;8.648;2022-12-15T04:28:31;99724.00;;;-7.34;90.06
72262;BME280;60173;52.112;8.648;2022-12-15T04:31:06;99731.28;;;-7.36;90.47
72262;BME280;60173;52.112;8.648;2022-12-15T04:33:34;99730.47;;;-7.43;90.56
72262;BME280;60173;52.112;8.648;2022-12-15T04:36:01;99726.19;;;-7.44;90.70
72262;BME280;60173;52.112;8.648;2022-12-15T04:38:27;99731.06;;;-7.41;90.71
72262;BME280;60173;52.112;8.648;2022-12-15T04:40:54;99732.25;;;-7.50;90.37
72262;BME280;60173;52.112;8.648;2022-12-15T04:43:20;99735.50;;;-7.48;90.29
72262;BME280;60173;52.112;8.648;2022-12-15T04:45:47;99727.81;;;-7.43;90.78
72262;BME280;60173;52.112;8.648;2022-12-15T04:48:13;99724.97;;;-7.41;90.83
72262;BME280;60173;52.112;8.648;2022-12-15T04:50:40;99717.88;;;-7.41;90.66
72262;BME280;60173;52.112;8.648;2022-12-15T04:53:11;99728.47;;;-7.28;90.59
72262;BME280;60173;52.112;8.648;2022-12-15T04:55:38;99720.72;;;-7.36;90.19
72262;BME280;60173;52.112;8.648;2022-12-15T04:58:06;99726.28;;;-7.17;89.49
72262;BME280;60173;52.112;8.648;2022-12-15T05:00:33;99726.03;;;-7.22;89.21
72262;BME280;60173;52.112;8.648;2022-12-15T05:03:08;99731.91;;;-7.27;88.94
72262;BME280;60173;52.112;8.648;2022-12-15T05:05:41;99730.28;;;-7.28;88.99
72262;BME280;60173;52.112;8.648;2022-12-15T05:08:08;99726.00;;;-7.36;89.28
72262;BME280;60173;52.112;8.648;2022-12-15T05:10:34;99730.69;;;-7.31;89.54
72262;BME280;60173;52.112;8.648;2022-12-15T05:13:05;99739.44;;;-7.24;89.59
72262;BME280;60173;52.112;8.648;2022-12-15T05:15:32;99729.09;;;-7.25;89.75
72262;BME280;60173;52.112;8.648;2022-12-15T05:17:59;99726.22;;;-7.24;90.25
72262;BME280;60173;52.112;8.648;2022-12-15T05:20:25;99726.03;;;-7.22;90.22
72262;BME280;60173;52.112;8.648;2022-12-15T05:22:55;99734.56;;;-7.27;90.20
72262;BME280;60173;52.112;8.648;2022-12-15T05:25:22;99734.75;;;-7.29;90.41
72262;BME280;60173;52.112;8.648;2022-12-15T05:27:48;99733.13;;;-7.30;90.33
72262;BME280;60173;52.112;8.648;2022-12-15T05:30:15;99734.53;;;-7.34;90.17
72262;BME280;60173;52.112;8.648;2022-12-15T05:32:41;99735.53;;;-7.35;90.40
72262;BME280;60173;52.112;8.648;2022-12-15T05:35:08;99735.97;;;-7.31;90.73
72262;BME280;60173;52.112;8.648;2022-12-15T05:37:34;99741.03;;;-7.30;90.60
72262;BME280;60173;52.112;8.648;2022-12-15T05:40:00;99741.47;;;-7.26;90.80
72262;BME280;60173;52.112;8.648;2022-12-15T05:42:27;99750.19;;;-7.25;90.37
72262;BME280;60173;52.112;8.648;2022-12-15T05:44:53;99751.97;;;-7.33;90.45
72262;BME280;60173;52.112;8.648;2022-12-15T05:47:19;99752.59;;;-7.31;90.59
72262;BME280;60173;52.112;8.648;2022-12-15T05:49:46;99765.81;;;-7.31;90.75
72262;BME280;60173;52.112;8.648;2022-12-15T05:52:12;99759.09;;;-7.27;90.73
72262;BME280;60173;52.112;8.648;2022-12-15T05:54:38;99768.66;;;-7.25;90.59
72262;BME280;60173;52.112;8.648;2022-12-15T05:57:05;99768.03;;;-7.28;90.35
72262;BME280;60173;52.112;8.648;2022-12-15T05:59:31;99770.28;;;-7.24;90.43
72262;BME280;60173;52.112;8.648;2022-12-15T06:01:57;99779.63;;;-7.29;90.04
72262;BME280;60173;52.112;8.648;2022-12-15T06:04:24;99773.72;;;-7.24;89.87
72262;BME280;60173;52.112;8.648;2022-12-15T06:06:50;99784.50;;;-7.25;89.81
72262;BME280;60173;52.112;8.648;2022-12-15T06:09:17;99788.53;;;-7.30;89.90
72262;BME280;60173;52.112;8.648;2022-12-15T06:11:43;99796.84;;;-7.33;89.91
72262;BME280;60173;52.112;8.648;2022-12-15T06:14:10;99798.03;;;-7.35;89.96
72262;BME280;60173;52.112;8.648;2022-12-15T06:16:36;99795.84;;;-7.32;89.94
72262;BME280;60173;52.112;8.648;2022-12-15T06:19:15;99794.19;;;-7.33;90.03
72262;BME280;60173;52.112;8.648;2022-12-15T06:21:42;99799.69;;;-7.28;89.98
72262;BME280;60173;52.112;8.648;2022-12-15T06:24:09;99804.34;;;-7.30;89.81
72262;BME280;60173;52.112;8.648;2022-12-15T06:26:37;99802.72;;;-7.37;89.76
72262;BME280;60173;52.112;8.648;2022-12-15T06:29:06;99797.00;;;-6.79;93.49
72262;BME280;60173;52.112;8.648;2022-12-15T06:31:33;99804.94;;;-6.53;95.17
72262;BME280;60173;52.112;8.648;2022-12-15T06:34:03;99809.97;;;-6.85;94.56
72262;BME280;60173;52.112;8.648;2022-12-15T06:36:29;99819.28;;;-6.95;93.90
72262;BME280;60173;52.112;8.648;2022-12-15T06:39:00;99820.66;;;-7.13;92.96
72262;BME280;60173;52.112;8.648;2022-12-15T06:41:28;99823.50;;;-7.14;92.13
72262;BME280;60173;52.112;8.648;2022-12-15T06:43:55;99815.59;;;-7.08;92.09
72262;BME280;60173;52.112;8.648;2022-12-15T06:46:23;99817.00;;;-7.12;91.64
72262;BME280;60173;52.112;8.648;2022-12-15T06:48:49;99815.16;;;-7.18;91.38
72262;BME280;60173;52.112;8.648;2022-12-15T06:51:16;99819.59;;;-7.32;90.74
72262;BME280;60173;52.112;8.648;2022-12-15T06:53:43;99830.69;;;-7.43;90.48
72262;BME280;60173;52.112;8.648;2022-12-15T06:56:31;99825.81;;;-7.46;90.38
72262;BME280;60173;52.112;8.648;2022-12-15T06:59:01;99814.09;;;-7.37;90.54
72262;BME280;60173;52.112;8.648;2022-12-15T07:01:27;99810.19;;;-7.41;90.34
72262;BME280;60173;52.112;8.648;2022-12-15T07:03:54;99825.19;;;-7.48;89.94
72262;BME280;60173;52.112;8.648;2022-12-15T07:06:21;99822.16;;;-7.45;90.33
72262;BME280;60173;52.112;8.648;2022-12-15T07:08:50;99829.88;;;-7.43;90.18
72262;BME280;60173;52.112;8.648;2022-12-15T07:11:17;99833.94;;;-7.41;90.05
72262;BME280;60173;52.112;8.648;2022-12-15T07:13:48;99840.88;;;-7.40;90.30
72262;BME280;60173;52.112;8.648;2022-12-15T07:16:14;99837.84;;;-7.37;90.38
72262;BME280;60173;52.112;8.648;2022-12-15T07:18:41;99832.56;;;-7.37;89.75
72262;BME280;60173;52.112;8.648;2022-12-15T07:21:08;99837.19;;;-7.39;89.85
72262;BME280;60173;52.112;8.648;2022-12-15T07:23:35;99841.84;;;-7.41;89.96
72262;BME280;60173;52.112;8.648;2022-12-15T07:26:19;99839.59;;;-7.44;90.01
72262;BME280;60173;52.112;8.648;2022-12-15T07:28:46;99840.22;;;-7.42;90.09
72262;BME280;60173;52.112;8.648;2022-12-15T07:31:12;99846.34;;;-7.35;89.88
72262;BME280;60173;52.112;8.648;2022-12-15T07:33:38;99848.63;;;-7.32;89.72
72262;BME280;60173;52.112;8.648;2022-12-15T07:36:05;99858.78;;;-7.29;89.78
72262;BME280;60173;52.112;8.648;2022-12-15T07:38:32;99866.06;;;-7.31;89.64
72262;BME280;60173;52.112;8.648;2022-12-15T07:41:00;99859.41;;;-7.20;89.82
72262;BME280;60173;52.112;8.648;2022-12-15T07:43:27;99873.03;;;-7.16;89.63
72262;BME280;60173;52.112;8.648;2022-12-15T07:45:55;99872.63;;;-7.13;89.74
72262;BME280;60173;52.112;8.648;2022-12-15T07:48:22;99879.75;;;-7.07;89.64
72262;BME280;60173;52.112;8.648;2022-12-15T07:50:48;99873.25;;;-7.11;89.50
72262;BME280;60173;52.112;8.648;2022-12-15T07:53:15;99884.25;;;-7.01;89.61
72262;BME280;60173;52.112;8.648;2022-12-15T07:55:42;99882.78;;;-7.10;89.29
72262;BME280;60173;52.112;8.648;2022-12-15T07:58:28;99891.28;;;-6.60;91.86
72262;BME280;60173;52.112;8.648;2022-12-15T08:00:59;99902.28;;;-6.56;91.51
72262;BME280;60173;52.112;8.648;2022-12-15T08:03:27;99904.13;;;-6.44;91.80
72262;BME280;60173;52.112;8.648;2022-12-15T08:05:55;99910.56;;;-6.66;90.57
72262;BME280;60173;52.112;8.648;2022-12-15T08:08:29;99912.97;;;-6.71;89.91
72262;BME280;60173;52.112;8.648;2022-12-15T08:10:56;99906.47;;;-6.75;89.04
72262;BME280;60173;52.112;8.648;2022-12-15T08:13:22;99907.91;;;-6.73;88.85
72262;BME280;60173;52.112;8.648;2022-12-15T08:16:09;99904.28;;;-6.65;88.28
72262;BME280;60173;52.112;8.648;2022-12-15T08:18:36;99906.16;;;-6.46;87.48
72262;BME280;60173;52.112;8.648;2022-12-15T08:21:04;99910.63;;;-6.40;87.00
72262;BME280;60173;52.112;8.648;2022-12-15T08:23:31;99915.09;;;-6.33;86.56
72262;BME280;60173;52.112;8.648;2022-12-15T08:28:29;99908.63;;;-6.24;86.42
72262;BME280;60173;52.112;8.648;2022-12-15T08:31:01;99905.38;;;-6.20;86.16
72262;BME280;60173;52.112;8.648;2022-12-15T08:33:28;99903.34;;;-6.11;85.98
72262;BME280;60173;52.112;8.648;2022-12-15T08:36:03;99903.34;;;-6.11;85.71
72262;BME280;60173;52.112;8.648;2022-12-15T08:38:31;99907.81;;;-6.11;85.73
72262;BME280;60173;52.112;8.648;2022-12-15T08:41:08;99904.38;;;-6.12;86.13
72262;BME280;60173;52.112;8.648;2022-12-15T08:43:36;99909.47;;;-6.04;86.49
72262;BME280;60173;52.112;8.648;2022-12-15T08:46:11;99909.41;;;-5.91;86.53
72262;BME280;60173;52.112;8.648;2022-12-15T08:48:37;99917.34;;;-5.77;86.24
72262;BME280;60173;52.112;8.648;2022-12-15T08:51:04;99913.69;;;-5.70;85.99
72262;BME280;60173;52.112;8.648;2022-12-15T08:53:30;99912.47;;;-5.60;85.87
72262;BME280;60173;52.112;8.648;2022-12-15T08:56:08;99912.22;;;-5.46;85.89
72262;BME280;60173;52.112;8.648;2022-12-15T08:58:35;99917.91;;;-5.29;85.13
72262;BME280;60173;52.112;8.648;2022-12-15T09:01:04;99926.84;;;-5.23;84.90
72262;BME280;60173;52.112;8.648;2022-12-15T09:03:32;99927.84;;;-5.17;84.80
72262;BME280;60173;52.112;8.648;2022-12-15T09:06:03;99923.88;;;-4.88;83.27
72262;BME280;60173;52.112;8.648;2022-12-15T09:08:30;99924.28;;;-4.85;81.87
72262;BME280;60173;52.112;8.648;2022-12-15T09:10:57;99921.06;;;-4.93;82.22
72262;BME280;60173;52.112;8.648;2022-12-15T09:13:24;99927.72;;;-4.84;82.41
72262;BME280;60173;52.112;8.648;2022-12-15T09:16:05;99936.06;;;-4.74;82.38
72262;BME280;60173;52.112;8.648;2022-12-15T09:18:36;99938.06;;;-4.63;81.64
72262;BME280;60173;52.112;8.648;2022-12-15T09:21:04;99934.13;;;-4.60;80.87
72262;BME280;60173;52.112;8.648;2022-12-15T09:23:31;99926.22;;;-4.67;80.72
72262;BME280;60173;52.112;8.648;2022-12-15T09:26:05;99932.25;;;-4.46;80.51
72262;BME280;60173;52.112;8.648;2022-12-15T09:28:32;99941.13;;;-4.34;80.27
72262;BME280;60173;52.112;8.648;2022-12-15T09:31:07;99943.16;;;-4.29;80.44
72262;BME280;60173;52.112;8.648;2022-12-15T09:33:34;99951.75;;;-4.34;80.24
72262;BME280;60173;52.112;8.648;2022-12-15T09:36:02;99949.38;;;-4.42;80.81
72262;BME280;60173;52.112;8.648;2022-12-15T09:38:29;99944.53;;;-4.20;80.80
72262;BME280;60173;52.112;8.648;2022-12-15T09:40:56;99952.03;;;-4.11;80.13
72262;BME280;60173;52.112;8.648;2022-12-15T09:43:24;99958.53;;;-4.06;80.31
72262;BME280;60173;52.112;8.648;2022-12-15T09:46:19;99961.78;;;-4.04;81.16
72262;BME280;60173;52.112;8.648;2022-12-15T09:48:50;99954.94;;;-3.87;80.91
72262;BME280;60173;52.112;8.648;2022-12-15T09:51:18;99947.28;;;-3.77;80.73
72262;BME280;60173;52.112;8.648;2022-12-15T09:53:45;99950.28;;;-3.67;80.70
72262;BME280;60173;52.112;8.648;2022-12-15T09:56:49;99957.09;;;-3.52;80.43
72262;BME280;60173;52.112;8.648;2022-12-15T09:59:32;99968.28;;;-3.50;80.48
72262;BME280;60173;52.112;8.648;2022-12-15T10:02:20;99968.69;;;-3.47;80.38
72262;BME280;60173;52.112;8.648;2022-12-15T10:05:12;99964.19;;;-3.46;80.41
72262;BME280;60173;52.112;8.648;2022-12-15T10:07:42;99968.91;;;-3.30;80.70
72262;BME280;60173;52.112;8.648;2022-12-15T10:10:24;99970.03;;;-3.19;80.30
72262;BME280;60173;52.112;8.648;2022-12-15T10:12:59;99961.88;;;-3.17;80.19
72262;BME280;60173;52.112;8.648;2022-12-15T10:15:43;99967.09;;;-3.11;79.81
72262;BME280;60173;52.112;8.648;2022-12-15T10:18:24;99969.25;;;-3.01;80.08
72262;BME280;60173;52.112;8.648;2022-12-15T10:20:52;99977.16;;;-2.94;80.14
72262;BME280;60173;52.112;8.648;2022-12-15T10:23:19;99977.44;;;-2.84;80.05
72262;BME280;60173;52.112;8.648;2022-12-15T10:25:53;99981.06;;;-2.79;80.11
72262;BME280;60173;52.112;8.648;2022-12-15T10:28:38;99970.56;;;-2.55;79.76
72262;BME280;60173;52.112;8.648;2022-12-15T10:34:00;99970.22;;;-2.29;76.43
72262;BME280;60173;52.112;8.648;2022-12-15T10:36:30;99974.06;;;-2.24;75.22
72262;BME280;60173;52.112;8.648;2022-12-15T10:38:56;99964.91;;;-2.29;75.31
72262;BME280;60173;52.112;8.648;2022-12-15T10:41:23;99968.44;;;-2.16;74.63
72262;BME280;60173;52.112;8.648;2022-12-15T10:43:51;99969.78;;;-2.25;75.17
72262;BME280;60173;52.112;8.648;2022-12-15T10:46:19;99977.56;;;-2.12;74.21
72262;BME280;60173;52.112;8.648;2022-12-15T10:49:19;99974.00;;;-2.06;73.52
72262;BME280;60173;52.112;8.648;2022-12-15T10:51:53;99967.97;;;-2.13;74.05
72262;BME280;60173;52.112;8.648;2022-12-15T10:54:21;99963.34;;;-2.06;74.30
72262;BME280;60173;52.112;8.648;2022-12-15T10:56:56;99964.44;;;-1.95;74.34
72262;BME280;60173;52.112;8.648;2022-12-15T10:59:31;99962.25;;;-1.87;73.70
72262;BME280;60173;52.112;8.648;2022-12-15T11:05:25;99964.13;;;-1.75;73.74
72262;BME280;60173;52.112;8.648;2022-12-15T11:10:52;99964.81;;;-1.68;73.74
72262;BME280;60173;52.112;8.648;2022-12-15T11:13:21;99963.91;;;-1.62;72.99
72262;BME280;60173;52.112;8.648;2022-12-15T11:15:52;99962.41;;;-1.58;73.30
72262;BME280;60173;52.112;8.648;2022-12-15T11:21:23;99963.47;;;-1.59;72.69
72262;BME280;60173;52.112;8.648;2022-12-15T11:24:14;99963.69;;;-1.49;72.81
72262;BME280;60173;52.112;8.648;2022-12-15T11:29:27;99963.56;;;-1.42;72.39
72262;BME280;60173;52.112;8.648;2022-12-15T11:31:57;99963.22;;;-1.46;72.48
72262;BME280;60173;52.112;8.648;2022-12-15T11:34:35;99976.34;;;-1.44;73.11
72262;BME280;60173;52.112;8.648;2022-12-15T11:45:06;99953.75;;;-1.30;72.30
72262;BME280;60173;52.112;8.648;2022-12-15T11:47:45;99955.72;;;-1.25;72.63
72262;BME280;60173;52.112;8.648;2022-12-15T11:50:28;99945.84;;;-1.13;72.57
72262;BME280;60173;52.112;8.648;2022-12-15T11:53:07;99950.25;;;-1.07;71.76
72262;BME280;60173;52.112;8.648;2022-12-15T11:56:00;99949.78;;;-1.04;71.00
72262;BME280;60173;52.112;8.648;2022-12-15T12:04:23;99943.28;;;-1.08;71.59
72262;BME280;60173;52.112;8.648;2022-12-15T12:12:51;99928.47;;;-1.04;70.63
72262;BME280;60173;52.112;8.648;2022-12-15T12:15:42;99935.75;;;-0.99;70.56
72262;BME280;60173;52.112;8.648;2022-12-15T12:18:19;99938.88;;;-0.91;70.46
72262;BME280;60173;52.112;8.648;2022-12-15T12:21:09;99935.50;;;-0.86;70.37
72262;BME280;60173;52.112;8.648;2022-12-15T12:26:28;99935.38;;;-0.79;68.79
72262;BME280;60173;52.112;8.648;2022-12-15T12:29:20;99938.84;;;-0.79;68.97
72262;BME280;60173;52.112;8.648;2022-12-15T12:39:46;99932.91;;;-0.69;69.67
72262;BME280;60173;52.112;8.648;2022-12-15T12:42:19;99931.84;;;-0.68;69.46
72262;BME280;60173;52.112;8.648;2022-12-15T12:44:47;99935.00;;;-0.71;69.64
72262;BME280;60173;52.112;8.648;2022-12-15T12:47:27;99931.97;;;-0.63;69.52
72262;BME280;60173;52.112;8.648;2022-12-15T12:50:02;99931.28;;;-0.70;69.19
72262;BME280;60173;52.112;8.648;2022-12-15T12:52:32;99929.09;;;-0.73;68.61
72262;BME280;60173;52.112;8.648;2022-12-15T12:57:41;99921.19;;;-0.68;69.22
72262;BME280;60173;52.112;8.648;2022-12-15T13:05:20;99918.72;;;-0.58;69.68
72262;BME280;60173;52.112;8.648;2022-12-15T13:16:28;99905.94;;;-0.56;69.11
72262;BME280;60173;52.112;8.648;2022-12-15T13:19:01;99908.28;;;-0.59;69.49
72262;BME280;60173;52.112;8.648;2022-12-15T13:29:55;99899.41;;;-0.77;69.43
72262;BME280;60173;52.112;8.648;2022-12-15T13:32:35;99895.00;;;-0.71;69.69
72262;BME280;60173;52.112;8.648;2022-12-15T13:35:20;99900.34;;;-0.71;69.95
72262;BME280;60173;52.112;8.648;2022-12-15T13:40:27;99894.19;;;-0.72;70.55
72262;BME280;60173;52.112;8.648;2022-12-15T13:43:09;99891.28;;;-0.70;70.51
72262;BME280;60173;52.112;8.648;2022-12-15T13:45:58;99888.72;;;-0.65;69.82
72262;BME280;60173;52.112;8.648;2022-12-15T13:48:34;99892.75;;;-0.62;69.56
72262;BME280;60173;52.112;8.648;2022-12-15T13:51:09;99890.25;;;-0.69;69.65
72262;BME280;60173;52.112;8.648;2022-12-15T13:53:45;99894.53;;;-0.68;69.77
72262;BME280;60173;52.112;8.648;2022-12-15T13:56:48;99891.53;;;-0.72;70.49
72262;BME280;60173;52.112;8.648;2022-12-15T13:59:33;99886.72;;;-0.86;70.50
72262;BME280;60173;52.112;8.648;2022-12-15T14:02:02;99892.22;;;-0.76;70.78
72262;BME280;60173;52.112;8.648;2022-12-15T14:04:29;99890.78;;;-0.67;70.72
72262;BME280;60173;52.112;8.648;2022-12-15T14:06:59;99885.97;;;-0.82;70.47
72262;BME280;60173;52.112;8.648;2022-12-15T14:09:32;99881.72;;;-0.83;70.67
72262;BME280;60173;52.112;8.648;2022-12-15T14:12:04;99879.75;;;-0.87;71.31
72262;BME280;60173;52.112;8.648;2022-12-15T14:14:36;99883.13;;;-0.92;71.97
72262;BME280;60173;52.112;8.648;2022-12-15T14:17:06;99878.03;;;-0.94;71.91
72262;BME280;60173;52.112;8.648;2022-12-15T14:19:45;99883.72;;;-1.02;72.71
72262;BME280;60173;52.112;8.648;2022-12-15T14:22:27;99888.84;;;-1.12;72.74
72262;BME280;60173;52.112;8.648;2022-12-15T14:27:28;99887.81;;;-1.23;73.18
72262;BME280;60173;52.112;8.648;2022-12-15T14:30:18;99883.53;;;-1.24;73.20
72262;BME280;60173;52.112;8.648;2022-12-15T14:32:51;99880.31;;;-1.38;73.68
72262;BME280;60173;52.112;8.648;2022-12-15T14:35:29;99887.06;;;-1.58;74.43
72262;BME280;60173;52.112;8.648;2022-12-15T14:37:59;99891.66;;;-1.77;75.01
72262;BME280;60173;52.112;8.648;2022-12-15T14:40:28;99888.31;;;-1.85;75.57
72262;BME280;60173;52.112;8.648;2022-12-15T14:42:55;99880.06;;;-1.95;75.77
72262;BME280;60173;52.112;8.648;2022-12-15T14:45:26;99881.81;;;-2.00;76.29
72262;BME280;60173;52.112;8.648;2022-12-15T14:47:56;99876.47;;;-2.12;76.51
72262;BME280;60173;52.112;8.648;2022-12-15T14:50:47;99881.19;;;-2.14;76.75
72262;BME280;60173;52.112;8.648;2022-12-15T14:53:16;99883.28;;;-2.16;77.21
72262;BME280;60173;52.112;8.648;2022-12-15T14:55:43;99877.25;;;-2.23;77.38
72262;BME280;60173;52.112;8.648;2022-12-15T14:58:33;99875.16;;;-2.33;77.63
72262;BME280;60173;52.112;8.648;2022-12-15T15:01:02;99871.69;;;-2.34;77.68
72262;BME280;60173;52.112;8.648;2022-12-15T15:03:37;99879.53;;;-2.39;77.67
72262;BME280;60173;52.112;8.648;2022-12-15T15:06:32;99871.88;;;-2.47;78.10